IBE04DF LESO-LEMD
Flight info
| Callsign | IBE04DF |
|---|---|
| Flight time | 0h 43m |
| Altitude | 27000 |
| Route | PPN N857 NOLSA N10 BANEV |
| Aircraft | A319/M-SDE3FGHIRWY/LB1 |
Departure
| Time | 2026-05-04 11:19 |
|---|---|
| Airport | San Sebastián Airport (LESO) |
Arrival
| Time | 2026-05-04 12:02 |
|---|---|
| Airport | Adolfo Suárez Madrid–Barajas Airport (LEMD) |
| Time | Latitude | Longitude | Altitude | Speed | Heading |
|---|---|---|---|---|---|
| 2026-05-04 10:54 | 43.35632 | -1.79236 | -38 ft | 0 kts | 220° |
| 2026-05-04 11:12 | 43.35630 | -1.79236 | 17 ft | 1 kts | 208° |
| 2026-05-04 11:12 | 43.35631 | -1.79223 | 19 ft | 2 kts | 58° |
| 2026-05-04 11:13 | 43.35648 | -1.79204 | 18 ft | 4 kts | 64° |
| 2026-05-04 11:13 | 43.35642 | -1.79171 | 18 ft | 1 kts | 124° |
| 2026-05-04 11:13 | 43.35641 | -1.79171 | 18 ft | 0 kts | 126° |
| 2026-05-04 11:16 | 43.35635 | -1.79159 | 20 ft | 2 kts | 126° |
| 2026-05-04 11:16 | 43.35621 | -1.79099 | 18 ft | 10 kts | 69° |
| 2026-05-04 11:16 | 43.35676 | -1.79033 | 18 ft | 13 kts | 38° |
| 2026-05-04 11:17 | 43.35758 | -1.78942 | 19 ft | 17 kts | 39° |
| 2026-05-04 11:17 | 43.35855 | -1.78836 | 21 ft | 18 kts | 39° |
| 2026-05-04 11:19 | 43.36212 | -1.78444 | 26 ft | 20 kts | 219° |
| 2026-05-04 11:19 | 43.35853 | -1.78842 | 20 ft | 110 kts | 218° |
| 2026-05-04 11:19 | 43.35097 | -1.79677 | 275 ft | 150 kts | 222° |
| 2026-05-04 11:19 | 43.34319 | -1.80607 | 1050 ft | 147 kts | 226° |
| 2026-05-04 11:20 | 43.33631 | -1.81648 | 1853 ft | 149 kts | 231° |
| 2026-05-04 11:20 | 43.32906 | -1.82775 | 2304 ft | 167 kts | 234° |
| 2026-05-04 11:20 | 43.32087 | -1.84056 | 2637 ft | 190 kts | 234° |
| 2026-05-04 11:20 | 43.31163 | -1.85500 | 2975 ft | 211 kts | 233° |
| 2026-05-04 11:22 | 43.22517 | -1.97545 | 8638 ft | 273 kts | 195° |
| 2026-05-04 11:22 | 43.20613 | -1.97559 | 9521 ft | 281 kts | 166° |
| 2026-05-04 11:23 | 43.18913 | -1.96187 | 10393 ft | 293 kts | 135° |
| 2026-05-04 11:23 | 43.17888 | -1.93732 | 11180 ft | 309 kts | 113° |
| 2026-05-04 11:24 | 43.07251 | -1.81286 | 15213 ft | 357 kts | 151° |
| 2026-05-04 11:25 | 43.05157 | -1.79511 | 15903 ft | 360 kts | 151° |
| 2026-05-04 11:25 | 43.03007 | -1.77734 | 16588 ft | 361 kts | 155° |
| 2026-05-04 11:25 | 43.00692 | -1.76408 | 17255 ft | 361 kts | 165° |
| 2026-05-04 11:26 | 42.95733 | -1.75139 | 18513 ft | 366 kts | 173° |
| 2026-05-04 11:27 | 42.77751 | -1.71153 | 22571 ft | 382 kts | 174° |
| 2026-05-04 11:28 | 42.75106 | -1.70928 | 23088 ft | 381 kts | 184° |
| 2026-05-04 11:28 | 42.72476 | -1.71387 | 23590 ft | 382 kts | 194° |
| 2026-05-04 11:28 | 42.69954 | -1.72520 | 24035 ft | 383 kts | 204° |
| 2026-05-04 11:28 | 42.67557 | -1.74126 | 24468 ft | 385 kts | 206° |
| 2026-05-04 11:29 | 42.65151 | -1.75760 | 24879 ft | 388 kts | 206° |
| 2026-05-04 11:29 | 42.62724 | -1.77390 | 25288 ft | 390 kts | 206° |
| 2026-05-04 11:29 | 42.60285 | -1.79018 | 25697 ft | 392 kts | 206° |
| 2026-05-04 11:29 | 42.57829 | -1.80657 | 26113 ft | 394 kts | 206° |
| 2026-05-04 11:31 | 42.40427 | -1.92283 | 26990 ft | 401 kts | 206° |
| 2026-05-04 11:33 | 42.22981 | -2.03891 | 26976 ft | 399 kts | 206° |
| 2026-05-04 11:33 | 42.20491 | -2.05535 | 26973 ft | 398 kts | 206° |
| 2026-05-04 11:33 | 42.18001 | -2.07179 | 26966 ft | 398 kts | 206° |
| 2026-05-04 11:34 | 42.15512 | -2.08820 | 26960 ft | 398 kts | 207° |
| 2026-05-04 11:34 | 42.13030 | -2.10459 | 26967 ft | 398 kts | 207° |
| 2026-05-04 11:34 | 42.10544 | -2.12098 | 26973 ft | 397 kts | 207° |
| 2026-05-04 11:34 | 42.08068 | -2.13727 | 26970 ft | 396 kts | 207° |
| 2026-05-04 11:35 | 42.05593 | -2.15359 | 26973 ft | 396 kts | 207° |
| 2026-05-04 11:35 | 42.03119 | -2.16993 | 26971 ft | 396 kts | 207° |
| 2026-05-04 11:35 | 42.00644 | -2.18622 | 26975 ft | 396 kts | 207° |
| 2026-05-04 11:35 | 41.98171 | -2.20244 | 26975 ft | 396 kts | 207° |
| 2026-05-04 11:36 | 41.95700 | -2.21861 | 26963 ft | 395 kts | 207° |
| 2026-05-04 11:36 | 41.93231 | -2.23476 | 26979 ft | 394 kts | 207° |
| 2026-05-04 11:36 | 41.90773 | -2.25090 | 26979 ft | 393 kts | 207° |
| 2026-05-04 11:36 | 41.88318 | -2.26702 | 26976 ft | 392 kts | 207° |
| 2026-05-04 11:37 | 41.85899 | -2.28284 | 26986 ft | 392 kts | 207° |
| 2026-05-04 11:37 | 41.83448 | -2.29885 | 27013 ft | 392 kts | 207° |
| 2026-05-04 11:37 | 41.80993 | -2.31488 | 26998 ft | 392 kts | 207° |
| 2026-05-04 11:37 | 41.78540 | -2.33090 | 26981 ft | 393 kts | 207° |
| 2026-05-04 11:38 | 41.76082 | -2.34694 | 26972 ft | 393 kts | 207° |
| 2026-05-04 11:38 | 41.73619 | -2.36298 | 26957 ft | 393 kts | 207° |
| 2026-05-04 11:38 | 41.71162 | -2.37900 | 26962 ft | 393 kts | 207° |
| 2026-05-04 11:38 | 41.68706 | -2.39499 | 26965 ft | 392 kts | 207° |
| 2026-05-04 11:39 | 41.66253 | -2.41098 | 26966 ft | 392 kts | 207° |
| 2026-05-04 11:39 | 41.63800 | -2.42693 | 26962 ft | 392 kts | 207° |
| 2026-05-04 11:40 | 41.49035 | -2.52226 | 24752 ft | 387 kts | 207° |
| 2026-05-04 11:41 | 41.46621 | -2.53788 | 24093 ft | 384 kts | 207° |
| 2026-05-04 11:41 | 41.44241 | -2.55325 | 23750 ft | 373 kts | 207° |
| 2026-05-04 11:41 | 41.41949 | -2.56798 | 23628 ft | 358 kts | 207° |
| 2026-05-04 11:41 | 41.39747 | -2.58215 | 23506 ft | 345 kts | 207° |
| 2026-05-04 11:42 | 41.37622 | -2.59581 | 23372 ft | 333 kts | 207° |
| 2026-05-04 11:42 | 41.35574 | -2.60897 | 23217 ft | 321 kts | 207° |
| 2026-05-04 11:42 | 41.33615 | -2.62243 | 22881 ft | 314 kts | 213° |
| 2026-05-04 11:42 | 41.31927 | -2.64043 | 22608 ft | 310 kts | 225° |
| 2026-05-04 11:43 | 41.30574 | -2.66272 | 22207 ft | 310 kts | 233° |
| 2026-05-04 11:43 | 41.29319 | -2.68612 | 21667 ft | 312 kts | 233° |
| 2026-05-04 11:43 | 41.28051 | -2.70965 | 21094 ft | 314 kts | 233° |
| 2026-05-04 11:43 | 41.26779 | -2.73310 | 20696 ft | 311 kts | 233° |
| 2026-05-04 11:44 | 41.25500 | -2.75658 | 20157 ft | 313 kts | 233° |
| 2026-05-04 11:44 | 41.24238 | -2.77979 | 19822 ft | 309 kts | 233° |
| 2026-05-04 11:44 | 41.22984 | -2.80282 | 19465 ft | 305 kts | 233° |
| 2026-05-04 11:44 | 41.21761 | -2.82529 | 19339 ft | 295 kts | 233° |
| 2026-05-04 11:45 | 41.20581 | -2.84702 | 19220 ft | 285 kts | 233° |
| 2026-05-04 11:45 | 41.19439 | -2.86802 | 19097 ft | 276 kts | 233° |
| 2026-05-04 11:45 | 41.18328 | -2.88837 | 18912 ft | 270 kts | 233° |
| 2026-05-04 11:45 | 41.17232 | -2.90842 | 18626 ft | 267 kts | 233° |
| 2026-05-04 11:46 | 41.16141 | -2.92832 | 18324 ft | 266 kts | 233° |
| 2026-05-04 11:46 | 41.15055 | -2.94815 | 17970 ft | 265 kts | 233° |
| 2026-05-04 11:46 | 41.13973 | -2.96793 | 17628 ft | 265 kts | 233° |
| 2026-05-04 11:46 | 41.12896 | -2.98766 | 17322 ft | 263 kts | 233° |
| 2026-05-04 11:47 | 41.11827 | -3.00725 | 16993 ft | 261 kts | 233° |
| 2026-05-04 11:47 | 41.10766 | -3.02666 | 16465 ft | 259 kts | 233° |
| 2026-05-04 11:47 | 41.09707 | -3.04596 | 15981 ft | 258 kts | 233° |
| 2026-05-04 11:47 | 41.08653 | -3.06516 | 15474 ft | 258 kts | 234° |
| 2026-05-04 11:48 | 41.07600 | -3.08435 | 14991 ft | 257 kts | 234° |
| 2026-05-04 11:48 | 41.06552 | -3.10339 | 14525 ft | 255 kts | 234° |
| 2026-05-04 11:48 | 41.05511 | -3.12235 | 14068 ft | 254 kts | 234° |
| 2026-05-04 11:48 | 41.04479 | -3.14120 | 13593 ft | 252 kts | 234° |
| 2026-05-04 11:49 | 41.03452 | -3.15995 | 13100 ft | 250 kts | 234° |
| 2026-05-04 11:49 | 41.02445 | -3.17829 | 12623 ft | 249 kts | 234° |
| 2026-05-04 11:49 | 41.01433 | -3.19668 | 12180 ft | 246 kts | 234° |
| 2026-05-04 11:49 | 41.00421 | -3.21503 | 11866 ft | 246 kts | 234° |
| 2026-05-04 11:50 | 40.99410 | -3.23329 | 11563 ft | 245 kts | 234° |
| 2026-05-04 11:50 | 40.98403 | -3.25147 | 11193 ft | 246 kts | 234° |
| 2026-05-04 11:50 | 40.97402 | -3.26960 | 10958 ft | 242 kts | 234° |
| 2026-05-04 11:50 | 40.96407 | -3.28758 | 10629 ft | 241 kts | 234° |
| 2026-05-04 11:51 | 40.95422 | -3.30539 | 10167 ft | 239 kts | 234° |
| 2026-05-04 11:51 | 40.94444 | -3.32305 | 9722 ft | 236 kts | 235° |
| 2026-05-04 11:51 | 40.93480 | -3.34049 | 9358 ft | 234 kts | 235° |
| 2026-05-04 11:51 | 40.92525 | -3.35789 | 9015 ft | 233 kts | 237° |
| 2026-05-04 11:52 | 40.91868 | -3.37723 | 8683 ft | 231 kts | 255° |
| 2026-05-04 11:52 | 40.91726 | -3.39112 | 8462 ft | 230 kts | 268° |
| 2026-05-04 11:52 | 40.91935 | -3.41205 | 8127 ft | 230 kts | 280° |
| 2026-05-04 11:52 | 40.92273 | -3.43263 | 7800 ft | 229 kts | 280° |
| 2026-05-04 11:53 | 40.92478 | -3.45338 | 7460 ft | 227 kts | 268° |
| 2026-05-04 11:53 | 40.92255 | -3.47392 | 7123 ft | 224 kts | 260° |
| 2026-05-04 11:53 | 40.91984 | -3.49386 | 6804 ft | 218 kts | 258° |
| 2026-05-04 11:53 | 40.91378 | -3.51201 | 6497 ft | 218 kts | 233° |
| 2026-05-04 11:55 | 40.82107 | -3.55597 | 5644 ft | 199 kts | 195° |
| 2026-05-04 11:55 | 40.80749 | -3.55906 | 5549 ft | 199 kts | 193° |
| 2026-05-04 11:56 | 40.79370 | -3.56099 | 5479 ft | 200 kts | 186° |
| 2026-05-04 11:56 | 40.77964 | -3.56086 | 5487 ft | 203 kts | 184° |
| 2026-05-04 11:56 | 40.76554 | -3.56069 | 5485 ft | 202 kts | 182° |
| 2026-05-04 11:56 | 40.75143 | -3.56058 | 5492 ft | 203 kts | 185° |
| 2026-05-04 11:57 | 40.73737 | -3.56050 | 5483 ft | 201 kts | 185° |
| 2026-05-04 11:57 | 40.72337 | -3.56042 | 5480 ft | 201 kts | 182° |
| 2026-05-04 11:57 | 40.70930 | -3.56035 | 5409 ft | 202 kts | 185° |
| 2026-05-04 11:57 | 40.69530 | -3.56027 | 5197 ft | 201 kts | 185° |
| 2026-05-04 11:58 | 40.68131 | -3.56019 | 4947 ft | 201 kts | 185° |
| 2026-05-04 11:58 | 40.66740 | -3.56011 | 4672 ft | 200 kts | 185° |
| 2026-05-04 11:58 | 40.65386 | -3.56003 | 4451 ft | 191 kts | 185° |
| 2026-05-04 11:58 | 40.64089 | -3.55995 | 4169 ft | 182 kts | 186° |
| 2026-05-04 11:59 | 40.62855 | -3.55988 | 3917 ft | 172 kts | 182° |
| 2026-05-04 11:59 | 40.61708 | -3.55982 | 3706 ft | 157 kts | 182° |
| 2026-05-04 11:59 | 40.60678 | -3.55975 | 3493 ft | 139 kts | 183° |
| 2026-05-04 11:59 | 40.59728 | -3.55971 | 3309 ft | 134 kts | 182° |
| 2026-05-04 12:00 | 40.58807 | -3.55967 | 3131 ft | 131 kts | 182° |
| 2026-05-04 12:00 | 40.57894 | -3.55963 | 2946 ft | 133 kts | 181° |
| 2026-05-04 12:00 | 40.56967 | -3.55958 | 2773 ft | 132 kts | 183° |
| 2026-05-04 12:00 | 40.56051 | -3.55952 | 2602 ft | 130 kts | 184° |
| 2026-05-04 12:01 | 40.55148 | -3.55948 | 2433 ft | 129 kts | 185° |
| 2026-05-04 12:01 | 40.54249 | -3.55944 | 2273 ft | 129 kts | 185° |
| 2026-05-04 12:02 | 40.50759 | -3.56138 | 1965 ft | 24 kts | 199° |
| 2026-05-04 12:03 | 40.50594 | -3.56149 | 1963 ft | 24 kts | 179° |
| 2026-05-04 12:03 | 40.50428 | -3.56149 | 1963 ft | 24 kts | 180° |
| 2026-05-04 12:03 | 40.50263 | -3.56147 | 1959 ft | 22 kts | 179° |
| 2026-05-04 12:03 | 40.50109 | -3.56145 | 1962 ft | 22 kts | 179° |
| 2026-05-04 12:04 | 40.49986 | -3.56143 | 1959 ft | 15 kts | 179° |
| 2026-05-04 12:04 | 40.49878 | -3.56144 | 1959 ft | 15 kts | 180° |
| 2026-05-04 12:04 | 40.49762 | -3.56144 | 1959 ft | 19 kts | 180° |
| 2026-05-04 12:04 | 40.49630 | -3.56143 | 1959 ft | 20 kts | 179° |
| 2026-05-04 12:05 | 40.49491 | -3.56142 | 1959 ft | 21 kts | 179° |
| 2026-05-04 12:05 | 40.49348 | -3.56140 | 1959 ft | 21 kts | 179° |
| 2026-05-04 12:05 | 40.49204 | -3.56138 | 1959 ft | 21 kts | 180° |
| 2026-05-04 12:05 | 40.49059 | -3.56140 | 1959 ft | 21 kts | 180° |
| 2026-05-04 12:06 | 40.48915 | -3.56139 | 1959 ft | 21 kts | 179° |
| 2026-05-04 12:06 | 40.48776 | -3.56160 | 1963 ft | 19 kts | 226° |
| 2026-05-04 12:06 | 40.48768 | -3.56318 | 1964 ft | 16 kts | 269° |
| 2026-05-04 12:06 | 40.48767 | -3.56455 | 1968 ft | 14 kts | 269° |
| 2026-05-04 12:07 | 40.48767 | -3.56571 | 1972 ft | 12 kts | 270° |
| 2026-05-04 12:07 | 40.48767 | -3.56689 | 1974 ft | 14 kts | 270° |
| 2026-05-04 12:07 | 40.48767 | -3.56840 | 1976 ft | 20 kts | 270° |
| 2026-05-04 12:07 | 40.48765 | -3.57045 | 1980 ft | 24 kts | 269° |
| 2026-05-04 12:08 | 40.48764 | -3.57263 | 1984 ft | 23 kts | 270° |
| 2026-05-04 12:08 | 40.48764 | -3.57460 | 1989 ft | 21 kts | 269° |
| 2026-05-04 12:08 | 40.48763 | -3.57657 | 1991 ft | 22 kts | 270° |
| 2026-05-04 12:08 | 40.48762 | -3.57857 | 1996 ft | 19 kts | 269° |
| 2026-05-04 12:09 | 40.48679 | -3.57926 | 1999 ft | 17 kts | 180° |
| 2026-05-04 12:09 | 40.48598 | -3.57995 | 2001 ft | 17 kts | 267° |
| 2026-05-04 12:09 | 40.48597 | -3.58156 | 2007 ft | 17 kts | 270° |
| 2026-05-04 12:09 | 40.48597 | -3.58292 | 2012 ft | 13 kts | 269° |
| 2026-05-04 12:10 | 40.48596 | -3.58402 | 2015 ft | 13 kts | 270° |
| 2026-05-04 12:10 | 40.48596 | -3.58535 | 2020 ft | 15 kts | 270° |
| 2026-05-04 12:10 | 40.48595 | -3.58669 | 2022 ft | 14 kts | 270° |
| 2026-05-04 12:10 | 40.48613 | -3.58794 | 2028 ft | 14 kts | 318° |
| 2026-05-04 12:11 | 40.48714 | -3.58809 | 2022 ft | 16 kts | 359° |
| 2026-05-04 12:11 | 40.48838 | -3.58810 | 2022 ft | 19 kts | 360° |
| 2026-05-04 12:11 | 40.48971 | -3.58811 | 2022 ft | 19 kts | 0° |
| 2026-05-04 12:11 | 40.49104 | -3.58813 | 2022 ft | 19 kts | 359° |
| 2026-05-04 12:12 | 40.49237 | -3.58813 | 2022 ft | 19 kts | 360° |
| 2026-05-04 12:12 | 40.49370 | -3.58814 | 2022 ft | 18 kts | 0° |
| 2026-05-04 12:12 | 40.49399 | -3.58870 | 2032 ft | 8 kts | 263° |
| 2026-05-04 12:12 | 40.49398 | -3.58947 | 2022 ft | 7 kts | 270° |
| 2026-05-04 12:13 | 40.49398 | -3.58969 | 2026 ft | 1 kts | 269° |
| 2026-05-04 12:14 | 40.49398 | -3.58972 | 2027 ft | 0 kts | 269° |